Main page
METAR-TAF:

METAR-TAF

Airports :

El Edén International Airport

Armenia, Colombia

latitude: 04-30N, longitude: 075-43W, elevation: 1204 m

Current weather observation

The report was made 5 hours and 3 minutes ago, at 04:00 UTC
Wind 3 kt from the North/Northeast
Temperature 21°C
Humidity 88%
Pressure 1016 hPa
Visibility 10 km or more
Scattered clouds at a height of 2500 ft

METAR: SKAR 180400Z 02003KT 9999 SCT025 21/19 Q1016

Time: 04:03 (09:03 UTC)

Forecast

The report was made 4 hours and 33 minutes ago, at 04:30 UTC
Forecast valid from 18 at 06 UTC to 19 at 06 UTC
Wind kt from the North
Visibility 10 km or more
Scattered clouds at a height of 2000 ft
Broken clouds at a height of 9000 ft
Temporary
from 18 at 23 UTC to 19 at 01 UTC
Scattered clouds at a height of 2000 ft, Towering cumulus.
drizzle,

TAF: SKAR 180430Z 1806/1906 00000KT 9999 SCT020 BKN090 TEMPO 1823/1901 DZ SCT020TCU TX28/1819Z TN19/1810Z

Weather observations and forecasts of more than 4000 airports (METAR and TAF reports).

The available stations are represented by yellow and red dots on the map.

Hover mouse over dot to see the name of the station.

Then click to see weather observations and forecasts.

To change the map : click on the green buttons with a black cross to zoom in, on the green button with a dash to zoom out, or on the green arrows for adjacent maps.


METAR-TAF: